Time;durP1;ratioP1;P1;durP2;ratioP2;P2;SDS_P1;SDS_P2;PMS_P1;PMS_P2;Temp;Humidity;BMP_temperature;BMP_pressure;BME280_temperature;BME280_humidity;BME280_pressure;Samples;Min_cycle;Max_cycle;Signal;HPM_P1;HPM_P2
2023/09/17 00:00:09;;;;;;;4.80;4.40;;;27.70;66.80;;;;;;5108736;27;20454;-77
2023/09/17 00:02:38;;;;;;;4.13;3.80;;;27.70;66.80;;;;;;5121077;27;20537;-76
2023/09/17 00:05:08;;;;;;;4.20;3.90;;;27.70;66.80;;;;;;5107110;28;20449;-75
2023/09/17 00:07:36;;;;;;;5.10;3.80;;;27.70;66.80;;;;;;5093970;27;20447;-76
2023/09/17 00:10:05;;;;;;;5.13;4.70;;;27.70;66.80;;;;;;5111632;27;20491;-80
2023/09/17 00:12:34;;;;;;;4.20;3.80;;;27.70;66.80;;;;;;5092546;28;20442;-76
2023/09/17 00:15:03;;;;;;;4.13;3.83;;;27.70;66.80;;;;;;5108670;28;20941;-75
2023/09/17 00:17:31;;;;;;;4.27;3.93;;;27.70;66.70;;;;;;5105051;28;21015;-80
2023/09/17 00:19:59;;;;;;;4.07;3.87;;;27.70;66.80;;;;;;5113299;27;20523;-75
2023/09/17 00:22:29;;;;;;;4.00;3.70;;;27.70;66.80;;;;;;5112340;28;20485;-75
2023/09/17 00:24:58;;;;;;;5.00;4.30;;;27.70;66.80;;;;;;5113280;28;20434;-75
2023/09/17 00:27:26;;;;;;;4.60;4.27;;;27.70;66.80;;;;;;5116286;27;20502;-76
2023/09/17 00:29:54;;;;;;;4.23;3.93;;;27.70;66.80;;;;;;5134048;27;20424;-75
2023/09/17 00:32:22;;;;;;;3.97;3.77;;;27.70;66.80;;;;;;5115838;27;20437;-76
2023/09/17 00:34:51;;;;;;;4.47;4.17;;;27.70;66.80;;;;;;5098632;27;20462;-76
2023/09/17 00:37:19;;;;;;;4.27;3.87;;;27.70;66.80;;;;;;5096698;28;20457;-76
2023/09/17 00:39:48;;;;;;;4.50;4.10;;;27.70;66.80;;;;;;5113593;28;20491;-77
2023/09/17 00:42:17;;;;;;;4.10;3.80;;;27.70;66.80;;;;;;5095267;28;20471;-78
2023/09/17 00:44:46;;;;;;;4.40;4.10;;;27.70;66.80;;;;;;5095320;28;20454;-78
2023/09/17 00:47:15;;;;;;;4.07;3.73;;;27.70;66.80;;;;;;5094999;28;20496;-76
2023/09/17 00:49:43;;;;;;;4.23;3.93;;;27.70;66.80;;;;;;5113027;28;20448;-76
2023/09/17 00:52:16;;;;;;;4.50;4.10;;;27.70;66.80;;;;;;5121917;27;20452;-75
2023/09/17 00:54:47;;;;;;;4.20;3.90;;;27.70;66.80;;;;;;5120724;27;20492;-76
2023/09/17 00:57:17;;;;;;;4.30;4.00;;;27.70;66.80;;;;;;5091794;28;20449;-75
2023/09/17 00:59:47;;;;;;;5.53;5.13;;;27.70;66.80;;;;;;5100700;27;20449;-77
2023/09/17 01:02:17;;;;;;;5.30;4.90;;;27.70;66.80;;;;;;5092574;28;20454;-78
2023/09/17 01:04:49;;;;;;;4.97;4.47;;;27.60;66.90;;;;;;5105290;27;21022;-76
2023/09/17 01:07:18;;;;;;;4.00;3.80;;;27.70;66.90;;;;;;5115035;27;20462;-76
2023/09/17 01:09:47;;;;;;;4.40;4.10;;;27.60;66.90;;;;;;5109764;27;20941;-75
2023/09/17 01:12:17;;;;;;;4.50;4.17;;;27.60;66.90;;;;;;5113125;27;20455;-78
2023/09/17 01:14:46;;;;;;;4.43;4.03;;;27.60;66.90;;;;;;5121434;27;20469;-75
2023/09/17 01:17:16;;;;;;;4.30;4.00;;;27.60;66.90;;;;;;5112253;28;20937;-75
2023/09/17 01:19:44;;;;;;;4.17;3.87;;;27.60;66.90;;;;;;5101832;28;20553;-75
2023/09/17 01:22:18;;;;;;;4.00;3.70;;;27.60;67.00;;;;;;5073978;28;20482;-75
2023/09/17 01:24:55;;;;;;;3.77;3.47;;;27.60;67.00;;;;;;5104181;28;20465;-75
2023/09/17 01:27:26;;;;;;;3.87;3.57;;;27.60;67.00;;;;;;5088751;28;20904;-76
2023/09/17 01:29:55;;;;;;;4.53;4.13;;;27.60;67.00;;;;;;5112753;28;20420;-76
2023/09/17 01:32:24;;;;;;;4.50;4.20;;;27.60;67.00;;;;;;5112033;28;20509;-76
2023/09/17 01:34:54;;;;;;;4.30;4.00;;;27.60;67.00;;;;;;5110696;27;20480;-76
2023/09/17 01:37:30;;;;;;;4.70;4.40;;;27.60;67.00;;;;;;5110129;28;20945;-76
2023/09/17 01:40:01;;;;;;;5.27;4.70;;;27.50;67.10;;;;;;5093783;28;20449;-77
2023/09/17 01:42:31;;;;;;;4.47;4.17;;;27.50;67.00;;;;;;5099723;28;20450;-77
2023/09/17 01:45:01;;;;;;;4.27;4.00;;;27.50;67.10;;;;;;5112750;27;20448;-77
2023/09/17 01:47:31;;;;;;;4.53;4.23;;;27.50;67.10;;;;;;5091478;28;20450;-76
2023/09/17 01:50:00;;;;;;;4.27;3.97;;;27.50;67.10;;;;;;5112177;28;20450;-77
2023/09/17 01:52:32;;;;;;;3.83;3.60;;;27.50;67.10;;;;;;5111399;27;20465;-77
2023/09/17 01:55:02;;;;;;;4.33;4.03;;;27.50;67.10;;;;;;5096499;28;20468;-76
2023/09/17 01:57:32;;;;;;;4.77;4.37;;;27.50;67.10;;;;;;5111432;28;20513;-77
2023/09/17 02:00:01;;;;;;;4.30;4.00;;;27.50;67.20;;;;;;5093730;28;20456;-75
2023/09/17 02:02:38;;;;;;;4.23;3.93;;;27.50;67.20;;;;;;5114190;28;20446;-77
2023/09/17 02:05:08;;;;;;;4.20;3.80;;;27.50;67.10;;;;;;5099157;28;20441;-76
2023/09/17 02:07:36;;;;;;;4.43;4.13;;;27.40;67.20;;;;;;5082630;28;20870;-78
2023/09/17 02:10:08;;;;;;;5.20;4.80;;;27.40;67.20;;;;;;5093180;28;20456;-76
2023/09/17 02:12:38;;;;;;;3.93;3.63;;;27.40;67.20;;;;;;5106805;28;20429;-76
2023/09/17 02:15:09;;;;;;;4.93;4.57;;;27.40;67.20;;;;;;5091989;28;21037;-76
2023/09/17 02:17:38;;;;;;;3.97;3.70;;;27.40;67.20;;;;;;5089174;28;20444;-76
2023/09/17 02:20:11;;;;;;;5.10;4.63;;;27.40;67.20;;;;;;5111895;28;20464;-76
2023/09/17 02:22:39;;;;;;;6.40;5.80;;;27.40;67.20;;;;;;5092453;28;20479;-76
2023/09/17 02:25:09;;;;;;;5.63;5.23;;;27.40;67.10;;;;;;5091445;28;20444;-76
2023/09/17 02:27:39;;;;;;;5.77;5.27;;;27.40;67.30;;;;;;5108778;28;20454;-76
2023/09/17 02:30:09;;;;;;;6.00;5.50;;;27.40;67.30;;;;;;5114615;28;20507;-77
2023/09/17 02:32:37;;;;;;;5.37;4.87;;;27.40;67.30;;;;;;5088284;28;20798;-79
2023/09/17 02:35:08;;;;;;;5.53;5.13;;;27.30;67.30;;;;;;5111770;28;20548;-75
2023/09/17 02:37:37;;;;;;;5.50;5.10;;;27.40;67.30;;;;;;5110561;28;20497;-75
2023/09/17 02:40:08;;;;;;;6.50;6.00;;;27.40;67.20;;;;;;5093742;28;20445;-75
2023/09/17 02:42:39;;;;;;;5.00;4.63;;;27.30;67.20;;;;;;5110639;28;20556;-75
2023/09/17 02:45:08;;;;;;;6.43;5.93;;;27.30;67.20;;;;;;5118538;27;20452;-75
2023/09/17 02:47:40;;;;;;;6.37;5.87;;;27.30;67.20;;;;;;5124710;27;20444;-76
2023/09/17 02:50:10;;;;;;;9.17;6.50;;;27.30;67.20;;;;;;5097410;28;20552;-76
2023/09/17 02:52:39;;;;;;;6.23;5.63;;;27.30;67.10;;;;;;5112150;27;20446;-76
2023/09/17 02:55:08;;;;;;;6.50;6.10;;;27.30;67.20;;;;;;5105152;27;20453;-76
2023/09/17 02:57:38;;;;;;;6.03;5.63;;;27.30;67.10;;;;;;5093958;28;20440;-76
2023/09/17 03:00:08;;;;;;;5.67;5.27;;;27.30;67.20;;;;;;5076697;28;20485;-76
2023/09/17 03:02:38;;;;;;;6.03;5.53;;;27.30;67.10;;;;;;5087822;28;21031;-75
2023/09/17 03:05:10;;;;;;;6.90;6.40;;;27.30;67.20;;;;;;5111623;28;20443;-76
2023/09/17 03:07:39;;;;;;;6.60;6.10;;;27.20;67.10;;;;;;5094984;28;20531;-75
2023/09/17 03:10:11;;;;;;;5.67;5.27;;;27.20;67.10;;;;;;5107887;27;20445;-77
2023/09/17 03:12:42;;;;;;;6.97;6.47;;;27.20;67.20;;;;;;5077008;28;20985;-76
2023/09/17 03:15:11;;;;;;;6.27;5.77;;;27.20;67.00;;;;;;5090180;28;20963;-76
2023/09/17 03:17:40;;;;;;;6.60;6.10;;;27.20;67.10;;;;;;5110468;27;20446;-76
2023/09/17 03:20:16;;;;;;;6.83;6.33;;;27.20;67.20;;;;;;5096424;28;20450;-77
2023/09/17 03:22:46;;;;;;;7.20;6.70;;;27.20;67.00;;;;;;5096068;28;20472;-76
2023/09/17 03:25:14;;;;;;;6.50;6.00;;;27.20;67.20;;;;;;5090915;28;20540;-79
2023/09/17 03:27:47;;;;;;;7.13;6.60;;;27.20;67.20;;;;;;5094689;28;20461;-76
2023/09/17 03:30:15;;;;;;;6.43;5.83;;;27.20;67.20;;;;;;5094987;28;20493;-75
2023/09/17 03:32:43;;;;;;;6.20;5.70;;;27.20;67.20;;;;;;5095120;28;20453;-77
2023/09/17 03:35:14;;;;;;;6.73;6.23;;;27.20;67.20;;;;;;5111802;27;20456;-76
2023/09/17 03:37:43;;;;;;;5.83;5.43;;;27.20;67.10;;;;;;5091997;28;20946;-75
2023/09/17 03:40:14;;;;;;;5.90;5.40;;;27.10;67.10;;;;;;5110390;28;20454;-75
2023/09/17 03:42:46;;;;;;;5.87;5.37;;;27.10;67.00;;;;;;5095596;27;20455;-76
2023/09/17 03:45:16;;;;;;;6.27;5.80;;;27.10;67.20;;;;;;5110544;28;20446;-76
2023/09/17 03:47:47;;;;;;;5.80;5.40;;;27.10;67.20;;;;;;5116671;27;20446;-76
2023/09/17 03:50:17;;;;;;;6.00;5.50;;;27.10;67.10;;;;;;5132671;27;20463;-76
2023/09/17 03:52:53;;;;;;;5.60;5.20;;;27.10;67.20;;;;;;5114567;27;20857;-77
2023/09/17 03:55:23;;;;;;;6.20;5.70;;;27.10;67.20;;;;;;5100689;28;20448;-76
2023/09/17 03:57:52;;;;;;;5.30;4.90;;;27.10;67.10;;;;;;5092789;28;20472;-76
2023/09/17 04:00:24;;;;;;;6.80;6.30;;;27.10;67.20;;;;;;5105948;27;20453;-76
2023/09/17 04:02:54;;;;;;;6.10;5.60;;;27.00;67.20;;;;;;5110216;28;20445;-76
2023/09/17 04:05:24;;;;;;;6.23;5.83;;;27.10;67.20;;;;;;5092494;28;20480;-75
2023/09/17 04:07:52;;;;;;;7.00;6.30;;;27.10;67.20;;;;;;5117048;27;20925;-76
2023/09/17 04:10:21;;;;;;;6.10;5.60;;;27.00;67.10;;;;;;5113762;27;20519;-77
2023/09/17 04:12:49;;;;;;;5.67;5.20;;;27.00;67.00;;;;;;5093503;28;21172;-76
2023/09/17 04:15:20;;;;;;;6.23;5.63;;;27.00;67.10;;;;;;5112981;28;20446;-78
2023/09/17 04:17:51;;;;;;;6.37;5.87;;;27.00;67.10;;;;;;5117579;27;20507;-77
2023/09/17 04:20:21;;;;;;;6.67;6.17;;;27.00;67.00;;;;;;5112714;28;20431;-75
2023/09/17 04:22:51;;;;;;;6.10;5.50;;;27.00;67.10;;;;;;5094405;28;20986;-75
2023/09/17 04:25:21;;;;;;;5.83;5.43;;;27.00;67.20;;;;;;5099150;28;21008;-75
2023/09/17 04:27:52;;;;;;;5.67;5.27;;;27.00;67.10;;;;;;5107869;27;21018;-76
2023/09/17 04:30:23;;;;;;;5.83;4.70;;;27.00;67.00;;;;;;5097039;28;20447;-75
2023/09/17 04:32:54;;;;;;;5.83;5.33;;;27.00;67.00;;;;;;5112330;28;20428;-76
2023/09/17 04:35:24;;;;;;;6.17;5.77;;;27.00;67.10;;;;;;5094528;28;20547;-80
2023/09/17 04:37:52;;;;;;;6.77;5.40;;;27.00;67.10;;;;;;5094163;28;20464;-76
2023/09/17 04:40:32;;;;;;;5.67;5.27;;;26.90;67.10;;;;;;5094205;28;20582;-75
2023/09/17 04:43:05;;;;;;;5.90;5.50;;;26.90;67.00;;;;;;5098443;27;20533;-75
2023/09/17 04:45:35;;;;;;;6.07;5.40;;;26.90;66.80;;;;;;5097512;28;21136;-76
2023/09/17 04:48:13;;;;;;;6.40;5.80;;;26.90;67.00;;;;;;5093046;28;20954;-74
2023/09/17 04:50:44;;;;;;;5.57;5.17;;;26.90;67.10;;;;;;5089604;28;20533;-81
2023/09/17 04:53:15;;;;;;;5.93;5.43;;;26.90;67.00;;;;;;5093684;28;20929;-76
2023/09/17 04:55:46;;;;;;;5.73;5.30;;;26.90;67.10;;;;;;5090382;28;20456;-76
2023/09/17 04:58:16;;;;;;;6.03;5.60;;;26.90;67.10;;;;;;5072825;27;20465;-78
2023/09/17 05:00:47;;;;;;;6.70;5.90;;;26.90;67.20;;;;;;5104877;27;20761;-75
2023/09/17 05:03:17;;;;;;;5.20;4.80;;;26.90;67.20;;;;;;5092889;28;20561;-76
2023/09/17 05:05:49;;;;;;;6.30;5.90;;;26.90;67.20;;;;;;5103962;28;20456;-76
2023/09/17 05:08:18;;;;;;;5.57;5.17;;;26.90;67.20;;;;;;5103554;28;20925;-75
2023/09/17 05:10:47;;;;;;;5.00;4.60;;;26.90;67.30;;;;;;5093325;28;20447;-76
2023/09/17 05:13:17;;;;;;;7.13;5.73;;;26.90;67.30;;;;;;5092914;28;20993;-76
2023/09/17 05:15:47;;;;;;;5.60;5.20;;;26.90;67.20;;;;;;5092527;28;20567;-76
2023/09/17 05:18:17;;;;;;;5.97;5.47;;;26.90;67.30;;;;;;5105191;28;20471;-74
2023/09/17 05:20:48;;;;;;;5.83;5.33;;;26.90;67.30;;;;;;5106490;28;20487;-75
2023/09/17 05:23:17;;;;;;;5.30;5.00;;;26.90;67.20;;;;;;5073216;28;20446;-75
2023/09/17 05:25:48;;;;;;;6.30;5.80;;;26.90;67.20;;;;;;5094045;28;21383;-75
2023/09/17 05:28:17;;;;;;;5.90;5.50;;;26.90;67.20;;;;;;5084776;28;20443;-76
2023/09/17 05:30:45;;;;;;;5.83;5.33;;;26.90;67.20;;;;;;5090943;28;20436;-75
2023/09/17 05:33:13;;;;;;;5.33;4.93;;;26.90;67.20;;;;;;5090457;28;20543;-78
2023/09/17 05:35:44;;;;;;;5.27;4.90;;;26.90;67.20;;;;;;5094085;27;20451;-76
2023/09/17 05:38:13;;;;;;;4.90;4.60;;;26.90;67.20;;;;;;5072582;28;20476;-76
2023/09/17 05:40:41;;;;;;;5.43;5.00;;;26.90;67.20;;;;;;5072937;28;20439;-75
2023/09/17 05:43:09;;;;;;;5.17;4.77;;;26.90;67.20;;;;;;5101192;28;20456;-80
2023/09/17 05:45:39;;;;;;;5.90;5.50;;;26.90;67.30;;;;;;5106500;28;20439;-75
2023/09/17 05:48:07;;;;;;;5.27;4.97;;;26.90;67.20;;;;;;5091864;28;20449;-75
2023/09/17 05:50:36;;;;;;;6.10;5.50;;;26.90;67.20;;;;;;5093054;28;20463;-75
2023/09/17 05:53:06;;;;;;;5.47;5.07;;;26.90;67.20;;;;;;5109842;27;21081;-75
2023/09/17 05:55:34;;;;;;;6.07;5.60;;;26.90;67.30;;;;;;5097931;28;20448;-75
2023/09/17 05:58:03;;;;;;;5.27;4.87;;;26.90;67.30;;;;;;5110562;28;20461;-76
2023/09/17 06:00:31;;;;;;;5.67;5.27;;;26.90;67.30;;;;;;5101041;27;20444;-76
2023/09/17 06:03:00;;;;;;;5.43;5.03;;;26.90;67.30;;;;;;5092237;28;20459;-77
2023/09/17 06:05:28;;;;;;;5.53;5.00;;;26.90;67.30;;;;;;5092999;28;20448;-77
2023/09/17 06:07:56;;;;;;;5.40;5.00;;;26.90;67.00;;;;;;5110934;28;20477;-75
2023/09/17 06:10:27;;;;;;;6.13;5.73;;;26.90;67.10;;;;;;5102190;28;20458;-75
2023/09/17 06:12:55;;;;;;;5.40;5.00;;;26.90;67.30;;;;;;5114694;28;20478;-75
2023/09/17 06:15:25;;;;;;;5.43;4.80;;;26.90;67.30;;;;;;5089570;28;20954;-75
2023/09/17 06:17:53;;;;;;;5.47;5.03;;;26.90;67.30;;;;;;5093476;28;20476;-75
2023/09/17 06:20:22;;;;;;;5.30;4.90;;;26.90;67.30;;;;;;5132840;27;20418;-75
2023/09/17 06:22:50;;;;;;;5.03;4.73;;;26.90;67.20;;;;;;5105603;28;20491;-75
2023/09/17 06:25:20;;;;;;;5.47;5.07;;;26.90;67.30;;;;;;5105735;28;20542;-77
2023/09/17 06:27:50;;;;;;;5.27;4.87;;;26.90;67.30;;;;;;5110106;27;20545;-75
2023/09/17 06:30:19;;;;;;;5.63;5.07;;;26.90;67.20;;;;;;5116590;27;20439;-74
2023/09/17 06:32:48;;;;;;;5.73;5.23;;;26.90;67.30;;;;;;5095919;28;20467;-74
2023/09/17 06:35:16;;;;;;;5.00;4.63;;;26.90;67.30;;;;;;5103419;27;20469;-74
2023/09/17 06:37:44;;;;;;;4.77;4.47;;;26.90;67.30;;;;;;5112517;27;20489;-75
2023/09/17 06:40:14;;;;;;;5.87;5.47;;;26.90;67.30;;;;;;5096827;28;20444;-74
2023/09/17 06:42:42;;;;;;;5.47;5.07;;;26.90;67.30;;;;;;5091038;28;20506;-76
2023/09/17 06:45:12;;;;;;;5.50;5.10;;;26.90;67.30;;;;;;5110576;28;20465;-75
2023/09/17 06:47:40;;;;;;;4.40;4.10;;;26.90;67.30;;;;;;5109734;28;20455;-76
2023/09/17 06:50:09;;;;;;;5.10;4.80;;;26.90;67.30;;;;;;5112481;27;20440;-76
2023/09/17 06:52:37;;;;;;;4.77;4.47;;;26.90;67.30;;;;;;5115908;27;20510;-75
2023/09/17 06:55:06;;;;;;;5.10;4.70;;;26.90;67.30;;;;;;5109395;28;20456;-75
2023/09/17 06:57:34;;;;;;;4.90;4.60;;;26.90;67.30;;;;;;5110586;28;20484;-75
2023/09/17 07:00:07;;;;;;;5.20;4.70;;;26.90;67.20;;;;;;5106908;27;20447;-75
2023/09/17 07:02:37;;;;;;;4.90;4.60;;;26.90;67.30;;;;;;5113815;27;20492;-75
2023/09/17 07:05:07;;;;;;;4.70;4.40;;;26.90;67.30;;;;;;5110070;28;20821;-75
2023/09/17 07:07:36;;;;;;;4.67;4.37;;;26.90;67.30;;;;;;5106624;27;20539;-75
2023/09/17 07:10:04;;;;;;;5.13;4.80;;;26.90;67.30;;;;;;5107253;27;20540;-75
2023/09/17 07:12:37;;;;;;;5.20;4.80;;;26.90;67.20;;;;;;5112406;28;20443;-74
2023/09/17 07:15:10;;;;;;;5.17;4.77;;;27.00;67.20;;;;;;5111407;28;20548;-75
2023/09/17 07:17:40;;;;;;;5.33;4.97;;;27.00;67.30;;;;;;5092071;28;20464;-75
2023/09/17 07:20:11;;;;;;;4.93;4.53;;;27.00;67.30;;;;;;5113154;27;20463;-75
2023/09/17 07:22:40;;;;;;;4.47;4.17;;;27.00;67.30;;;;;;5107654;27;20483;-74
2023/09/17 07:25:09;;;;;;;5.43;5.03;;;27.00;67.30;;;;;;5111627;28;20439;-74
2023/09/17 07:27:37;;;;;;;5.33;4.93;;;27.00;67.20;;;;;;5112121;28;20449;-76
2023/09/17 07:30:06;;;;;;;5.57;4.30;;;27.00;67.20;;;;;;5113448;27;20493;-76
2023/09/17 07:32:36;;;;;;;4.90;4.50;;;27.00;67.30;;;;;;5107450;27;21015;-74
2023/09/17 07:35:08;;;;;;;5.60;5.20;;;27.00;67.30;;;;;;5106806;28;20499;-75
2023/09/17 07:37:36;;;;;;;5.03;4.63;;;27.00;67.20;;;;;;5113431;27;20461;-76
2023/09/17 07:40:18;;;;;;;4.33;4.03;;;27.00;67.20;;;;;;5107978;28;20960;-74
2023/09/17 07:42:46;;;;;;;5.03;4.63;;;27.10;67.20;;;;;;5104142;28;20448;-74
2023/09/17 07:45:15;;;;;;;5.17;4.77;;;27.10;67.20;;;;;;5105285;27;21000;-75
2023/09/17 07:47:43;;;;;;;5.07;4.57;;;27.10;67.20;;;;;;5108119;27;20972;-75
2023/09/17 07:50:12;;;;;;;4.80;4.50;;;27.10;67.20;;;;;;5113197;28;20447;-74
2023/09/17 07:52:41;;;;;;;4.60;4.30;;;27.10;67.20;;;;;;5110061;28;20481;-75
2023/09/17 07:55:10;;;;;;;4.27;3.97;;;27.10;67.20;;;;;;5109990;27;20472;-74
2023/09/17 07:57:39;;;;;;;5.03;4.73;;;27.10;67.20;;;;;;5102831;27;20456;-74
2023/09/17 08:00:08;;;;;;;4.60;4.30;;;27.10;67.20;;;;;;5106363;28;20455;-77
2023/09/17 08:02:43;;;;;;;5.20;4.90;;;27.10;67.20;;;;;;5103341;27;20514;-74
2023/09/17 08:05:14;;;;;;;4.53;4.23;;;27.10;67.20;;;;;;5104026;27;20445;-75
2023/09/17 08:07:43;;;;;;;4.10;3.90;;;27.10;67.20;;;;;;5111492;27;20517;-75
2023/09/17 08:10:11;;;;;;;4.50;4.20;;;27.10;67.20;;;;;;5109655;28;20921;-75
2023/09/17 08:12:40;;;;;;;5.23;4.83;;;27.20;67.10;;;;;;5093978;28;21118;-72
2023/09/17 08:15:08;;;;;;;4.67;4.37;;;27.20;67.10;;;;;;5108426;28;20444;-73
2023/09/17 08:17:37;;;;;;;4.60;4.30;;;27.20;67.10;;;;;;5106352;27;20940;-75
2023/09/17 08:20:09;;;;;;;5.60;5.10;;;27.20;67.00;;;;;;5111122;27;20570;-74
2023/09/17 08:22:39;;;;;;;4.50;4.20;;;27.20;67.00;;;;;;5105521;27;20486;-75
2023/09/17 08:25:09;;;;;;;6.07;4.70;;;27.20;67.10;;;;;;5102756;28;20539;-73
2023/09/17 08:27:37;;;;;;;4.90;4.50;;;27.20;67.10;;;;;;5111544;28;21102;-74
2023/09/17 08:30:11;;;;;;;4.40;4.10;;;27.20;67.10;;;;;;5092803;28;20922;-72
2023/09/17 08:32:40;;;;;;;4.30;4.00;;;27.20;67.00;;;;;;5110752;27;20448;-72
2023/09/17 08:35:09;;;;;;;4.57;4.27;;;27.20;67.10;;;;;;5110190;28;20447;-73
2023/09/17 08:37:39;;;;;;;4.33;4.03;;;27.20;67.10;;;;;;5112501;27;20448;-73
2023/09/17 08:40:10;;;;;;;5.00;4.60;;;27.20;67.10;;;;;;5112991;28;20466;-73
2023/09/17 08:42:40;;;;;;;4.43;4.13;;;27.20;67.10;;;;;;5093099;28;20807;-73
2023/09/17 08:45:10;;;;;;;4.83;4.30;;;27.20;67.10;;;;;;5112664;27;20475;-73
2023/09/17 08:47:39;;;;;;;4.70;4.30;;;27.30;67.10;;;;;;5080405;28;20847;-74
2023/09/17 08:50:09;;;;;;;6.10;4.43;;;27.30;67.00;;;;;;5099474;28;20446;-73
2023/09/17 08:52:41;;;;;;;5.20;4.70;;;27.30;67.10;;;;;;5108159;28;20444;-74
2023/09/17 08:55:11;;;;;;;4.87;4.47;;;27.30;67.10;;;;;;5105797;27;20513;-73
2023/09/17 08:57:52;;;;;;;4.50;4.20;;;27.30;67.10;;;;;;5092710;28;20842;-74
2023/09/17 09:00:22;;;;;;;4.70;4.37;;;27.30;67.10;;;;;;5102604;27;20468;-73
2023/09/17 09:02:55;;;;;;;4.60;4.20;;;27.30;67.10;;;;;;5112480;27;20443;-73
2023/09/17 09:05:25;;;;;;;6.00;5.40;;;27.30;67.10;;;;;;5115024;27;20835;-74
2023/09/17 09:07:56;;;;;;;5.33;4.93;;;27.30;67.00;;;;;;5109303;28;20949;-74
2023/09/17 09:10:25;;;;;;;5.00;4.60;;;27.30;67.00;;;;;;5109499;28;20848;-77
2023/09/17 09:12:53;;;;;;;4.70;4.30;;;27.40;67.00;;;;;;5108722;27;20446;-76
2023/09/17 09:15:22;;;;;;;4.40;3.93;;;27.40;67.00;;;;;;5110968;28;20434;-75
2023/09/17 09:17:53;;;;;;;5.03;4.73;;;27.40;66.90;;;;;;5110876;28;20453;-74
2023/09/17 09:20:21;;;;;;;5.30;4.90;;;27.40;66.90;;;;;;5094218;27;20921;-76
2023/09/17 09:22:49;;;;;;;5.73;5.13;;;27.40;66.80;;;;;;5111051;27;20486;-73
2023/09/17 09:25:19;;;;;;;5.67;5.17;;;27.40;66.80;;;;;;5110554;28;20443;-73
2023/09/17 09:27:48;;;;;;;4.27;3.97;;;27.40;66.80;;;;;;5101440;28;20546;-73
2023/09/17 09:30:16;;;;;;;5.03;4.50;;;27.40;66.80;;;;;;5107006;27;20452;-74
2023/09/17 09:32:46;;;;;;;4.50;4.10;;;27.40;66.80;;;;;;5107690;28;20538;-73
2023/09/17 09:35:14;;;;;;;5.20;4.80;;;27.40;66.80;;;;;;5111567;28;20445;-73
2023/09/17 09:37:43;;;;;;;4.83;4.20;;;27.40;66.80;;;;;;5111952;28;20439;-73
2023/09/17 09:40:14;;;;;;;4.33;3.93;;;27.40;66.80;;;;;;5107670;27;20474;-73
2023/09/17 09:42:46;;;;;;;4.53;4.23;;;27.40;66.80;;;;;;5100766;27;20453;-74
2023/09/17 09:45:16;;;;;;;4.70;4.33;;;27.40;66.90;;;;;;5079311;28;21117;-75
2023/09/17 09:47:48;;;;;;;4.60;4.20;;;27.40;66.90;;;;;;5092443;28;20467;-75
2023/09/17 09:50:23;;;;;;;5.20;4.70;;;27.40;66.90;;;;;;5096053;28;21084;-74
2023/09/17 09:52:52;;;;;;;4.27;3.97;;;27.40;66.80;;;;;;5092935;28;20959;-73
2023/09/17 09:55:23;;;;;;;8.70;4.30;;;27.40;66.90;;;;;;5091421;28;20934;-73
2023/09/17 09:57:54;;;;;;;5.00;4.53;;;27.40;66.90;;;;;;5099277;28;20462;-76
2023/09/17 10:00:26;;;;;;;4.50;3.80;;;27.40;66.90;;;;;;5095420;28;20475;-75
2023/09/17 10:02:55;;;;;;;5.53;4.43;;;27.40;66.90;;;;;;5099502;28;20542;-72
2023/09/17 10:05:33;;;;;;;5.67;4.47;;;27.40;67.00;;;;;;5094468;28;20547;-75
2023/09/17 10:08:04;;;;;;;4.50;4.13;;;27.40;67.10;;;;;;5080795;28;20918;-74
2023/09/17 10:10:33;;;;;;;4.60;4.30;;;27.40;66.90;;;;;;5090994;28;20499;-74
2023/09/17 10:13:06;;;;;;;4.93;4.63;;;27.40;66.90;;;;;;5092926;28;20474;-75
2023/09/17 10:15:36;;;;;;;5.37;4.17;;;27.40;67.00;;;;;;5093497;28;20450;-74
2023/09/17 10:18:06;;;;;;;4.87;4.47;;;27.40;67.10;;;;;;5092620;28;20450;-74
2023/09/17 10:20:36;;;;;;;6.00;4.70;;;27.30;67.20;;;;;;5077104;28;20470;-74
2023/09/17 10:23:06;;;;;;;4.70;4.40;;;27.30;67.20;;;;;;5100294;28;20481;-74
2023/09/17 10:25:36;;;;;;;6.57;4.33;;;27.30;67.40;;;;;;5083813;28;20801;-74
2023/09/17 10:28:11;;;;;;;4.50;4.10;;;27.20;67.50;;;;;;5072131;28;20808;-74
2023/09/17 10:30:44;;;;;;;4.60;4.20;;;27.20;67.60;;;;;;5093213;28;20449;-74
2023/09/17 10:33:15;;;;;;;5.60;4.20;;;27.20;67.60;;;;;;5093582;28;20454;-75
2023/09/17 10:35:45;;;;;;;4.77;4.37;;;27.20;67.70;;;;;;5091477;28;20461;-76
2023/09/17 10:38:17;;;;;;;4.53;4.13;;;27.20;67.80;;;;;;5103436;28;20463;-75
2023/09/17 10:40:46;;;;;;;5.17;4.73;;;27.20;67.80;;;;;;5105426;28;20476;-73
2023/09/17 10:43:20;;;;;;;4.80;4.43;;;27.20;67.80;;;;;;5110485;28;20433;-74
2023/09/17 10:45:50;;;;;;;4.60;4.20;;;27.20;67.80;;;;;;5108504;28;20474;-73
2023/09/17 10:48:23;;;;;;;4.87;4.47;;;27.20;67.80;;;;;;5105962;28;20457;-73
2023/09/17 10:50:55;;;;;;;4.60;4.20;;;27.30;67.80;;;;;;5108684;28;20452;-74
2023/09/17 10:53:24;;;;;;;4.70;4.30;;;27.40;67.70;;;;;;5105553;28;20457;-74
2023/09/17 10:56:03;;;;;;;5.20;4.70;;;27.50;67.20;;;;;;5107553;28;20447;-73
2023/09/17 10:58:38;;;;;;;4.13;3.83;;;27.70;66.90;;;;;;5100298;28;20540;-76
2023/09/17 11:01:09;;;;;;;4.93;4.53;;;27.90;66.40;;;;;;5100997;28;20478;-73
2023/09/17 11:03:42;;;;;;;4.23;3.93;;;28.20;65.70;;;;;;5103978;28;20994;-73
2023/09/17 11:06:16;;;;;;;4.80;4.40;;;28.30;65.40;;;;;;5107312;28;20942;-74
2023/09/17 11:08:46;;;;;;;4.57;4.17;;;28.40;65.00;;;;;;5101316;28;21025;-75
2023/09/17 11:11:17;;;;;;;4.43;4.07;;;28.50;64.90;;;;;;5103232;28;20507;-74
2023/09/17 11:13:48;;;;;;;4.20;3.90;;;28.60;64.60;;;;;;5104655;27;20467;-76
2023/09/17 11:16:17;;;;;;;4.13;3.90;;;28.70;64.40;;;;;;5107371;27;20453;-74
2023/09/17 11:19:03;;;;;;;5.83;3.90;;;28.70;64.30;;;;;;5108621;27;20463;-72
2023/09/17 11:21:35;;;;;;;4.10;3.50;;;28.80;64.20;;;;;;5107935;27;21003;-73
2023/09/17 11:24:07;;;;;;;3.53;3.27;;;28.90;64.10;;;;;;5117791;27;20548;-74
2023/09/17 11:26:39;;;;;;;3.70;3.50;;;28.90;63.90;;;;;;5119786;27;20453;-72
2023/09/17 11:29:10;;;;;;;4.50;4.10;;;28.90;64.00;;;;;;5107686;27;20456;-72
2023/09/17 11:32:01;;;;;;;3.77;3.47;;;28.90;64.00;;;;;;5102406;28;20540;-72
2023/09/17 11:34:31;;;;;;;6.30;3.87;;;29.00;63.90;;;;;;5105841;27;20636;-72
2023/09/17 11:37:01;;;;;;;4.10;3.80;;;29.00;63.80;;;;;;5093750;28;20531;-71
2023/09/17 11:39:30;;;;;;;4.03;3.70;;;29.10;63.70;;;;;;5114849;27;20986;-75
2023/09/17 11:42:05;;;;;;;5.87;5.37;;;29.10;63.60;;;;;;5113801;27;20473;-76
2023/09/17 11:44:37;;;;;;;5.33;4.23;;;29.10;63.60;;;;;;5106354;27;20814;-74
2023/09/17 11:47:10;;;;;;;4.30;3.90;;;29.10;63.60;;;;;;5111937;27;20452;-72
2023/09/17 11:49:39;;;;;;;4.70;4.20;;;29.20;63.50;;;;;;5111569;27;20466;-73
2023/09/17 11:52:12;;;;;;;3.90;3.60;;;29.20;63.50;;;;;;5113117;27;20459;-73
2023/09/17 11:54:50;;;;;;;7.83;4.03;;;29.30;63.40;;;;;;5114510;28;20438;-73
2023/09/17 11:57:24;;;;;;;4.33;4.00;;;29.30;63.30;;;;;;5089196;27;20872;-75
2023/09/17 11:59:55;;;;;;;4.37;3.53;;;29.30;63.20;;;;;;5116824;27;20944;-72
2023/09/17 12:02:24;;;;;;;5.90;3.50;;;29.30;63.20;;;;;;5112117;28;20451;-72
2023/09/17 12:04:53;;;;;;;7.53;4.67;;;29.40;63.20;;;;;;5101726;28;20521;-74
2023/09/17 12:07:22;;;;;;;3.73;3.43;;;29.40;63.20;;;;;;5096318;27;20489;-75
2023/09/17 12:10:00;;;;;;;4.93;3.77;;;29.30;63.20;;;;;;5101922;27;20938;-75
2023/09/17 12:12:30;;;;;;;4.83;3.63;;;29.30;63.30;;;;;;5102847;27;20449;-74
2023/09/17 12:15:00;;;;;;;5.17;4.00;;;29.30;63.50;;;;;;5115341;27;20495;-76
2023/09/17 12:17:28;;;;;;;4.63;4.33;;;29.30;63.60;;;;;;5105322;28;20476;-75
2023/09/17 12:20:12;;;;;;;4.37;3.97;;;29.30;63.40;;;;;;5110270;28;20808;-74
2023/09/17 12:22:41;;;;;;;8.10;4.13;;;29.30;63.60;;;;;;5110702;28;20456;-74
2023/09/17 12:25:15;;;;;;;4.33;3.93;;;29.20;63.60;;;;;;5105774;28;20448;-74
2023/09/17 12:27:47;;;;;;;6.80;5.00;;;29.20;63.70;;;;;;5111092;27;20461;-75
2023/09/17 12:30:17;;;;;;;5.87;4.40;;;29.20;63.90;;;;;;5113459;28;20435;-74
2023/09/17 12:32:45;;;;;;;7.17;4.50;;;29.20;63.90;;;;;;5109019;27;20446;-75
2023/09/17 12:35:14;;;;;;;4.67;4.37;;;29.20;63.90;;;;;;5114430;27;20502;-75
2023/09/17 12:37:42;;;;;;;7.97;4.27;;;29.20;63.90;;;;;;5091491;28;20805;-75
2023/09/17 12:40:12;;;;;;;4.80;4.40;;;29.30;63.70;;;;;;5093131;28;20473;-75
2023/09/17 12:42:41;;;;;;;4.30;3.90;;;29.40;63.60;;;;;;5100387;27;20451;-75
2023/09/17 12:45:11;;;;;;;10.90;4.33;;;29.40;63.80;;;;;;5116027;27;20447;-74
2023/09/17 12:47:41;;;;;;;5.80;4.70;;;29.50;63.70;;;;;;5104105;28;20444;-77
2023/09/17 12:50:10;;;;;;;4.77;4.20;;;29.50;63.70;;;;;;5104261;28;20537;-74
2023/09/17 12:52:38;;;;;;;6.73;4.30;;;29.50;63.70;;;;;;5110600;27;20453;-74
2023/09/17 12:55:08;;;;;;;6.30;4.93;;;29.60;63.60;;;;;;5109375;27;20868;-74
2023/09/17 12:57:36;;;;;;;6.07;4.83;;;29.60;63.50;;;;;;5107905;27;20483;-74
2023/09/17 13:00:07;;;;;;;4.03;3.70;;;29.60;63.50;;;;;;5109057;27;20454;-73
2023/09/17 13:02:37;;;;;;;8.13;4.07;;;29.50;63.40;;;;;;5105415;28;21273;-79